Time;durP1;ratioP1;P1;durP2;ratioP2;P2;SDS_P1;SDS_P2;PMS_P1;PMS_P2;Temp;Humidity;BMP_temperature;BMP_pressure;BME280_temperature;BME280_humidity;BME280_pressure;Samples;Min_cycle;Max_cycle;Signal;HPM_P1;HPM_P2
2024/01/04 00:01:28;;;;;;;2.95;0.77;;;;;;;15.71;53.28;99332.47;5094438;28;20515;-68
2024/01/04 00:03:54;;;;;;;2.15;0.85;;;;;;;15.69;53.58;99343.44;5076866;28;20056;-68
2024/01/04 00:06:20;;;;;;;2.72;0.93;;;;;;;15.70;53.44;99342.41;5077168;28;20059;-68
2024/01/04 00:08:48;;;;;;;9.63;0.77;;;;;;;15.70;52.60;99342.41;5067253;28;20120;-69
2024/01/04 00:11:13;;;;;;;1.58;0.80;;;;;;;15.68;53.51;99344.50;5070970;28;20064;-69
2024/01/04 00:13:39;;;;;;;1.63;1.08;;;;;;;15.68;53.13;99355.28;5065904;28;20063;-69
2024/01/04 00:16:09;;;;;;;1.45;0.60;;;;;;;15.65;53.14;99352.97;5067671;28;20058;-69
2024/01/04 00:18:35;;;;;;;7.70;1.40;;;;;;;15.67;53.16;99359.00;5061492;28;20048;-69
2024/01/04 00:21:02;;;;;;;5.55;0.82;;;;;;;15.68;53.07;99359.84;5056959;28;20072;-69
2024/01/04 00:23:28;;;;;;;4.60;1.42;;;;;;;15.68;53.45;99363.38;5065013;28;20033;-69
2024/01/04 00:25:53;;;;;;;6.93;0.98;;;;;;;15.65;52.75;99366.47;5065438;28;20025;-69
2024/01/04 00:28:18;;;;;;;4.22;1.08;;;;;;;15.64;53.15;99369.34;5064719;28;20116;-69
2024/01/04 00:30:44;;;;;;;5.32;1.10;;;;;;;15.61;53.72;99370.59;5068778;28;20029;-69
2024/01/04 00:33:09;;;;;;;7.32;1.15;;;;;;;15.61;53.70;99381.38;5065811;28;20396;-68
2024/01/04 00:35:34;;;;;;;4.60;1.35;;;;;;;15.54;53.61;99372.41;5066268;28;20078;-69
2024/01/04 00:38:00;;;;;;;3.63;0.88;;;;;;;15.55;52.73;99392.97;5064792;28;20043;-70
2024/01/04 00:40:25;;;;;;;2.80;0.88;;;;;;;15.55;54.02;99402.94;5072891;28;20528;-70
2024/01/04 00:42:51;;;;;;;3.90;1.70;;;;;;;15.51;53.79;99397.09;5079204;28;20043;-70
2024/01/04 00:45:17;;;;;;;6.75;1.35;;;;;;;15.49;53.32;99399.16;5054331;28;20493;-69
2024/01/04 00:47:42;;;;;;;3.25;0.77;;;;;;;15.48;52.94;99413.69;5065885;28;20060;-69
2024/01/04 00:50:08;;;;;;;3.10;1.00;;;;;;;15.48;53.31;99419.09;5067571;28;20492;-69
2024/01/04 00:52:33;;;;;;;3.53;1.70;;;;;;;15.49;53.54;99419.91;5066060;28;20033;-69
2024/01/04 00:54:59;;;;;;;9.63;0.90;;;;;;;15.52;54.50;99433.03;5064750;28;20025;-69
2024/01/04 00:57:24;;;;;;;9.43;0.90;;;;;;;15.53;53.90;99432.81;5067384;28;20486;-69
2024/01/04 00:59:49;;;;;;;4.32;1.67;;;;;;;15.53;53.07;99432.81;5064995;28;20032;-69
2024/01/04 01:02:15;;;;;;;1.75;0.73;;;;;;;15.57;54.01;99435.97;5067964;28;20029;-69
2024/01/04 01:04:40;;;;;;;2.28;0.90;;;;;;;15.58;53.93;99446.56;5064045;28;20504;-69
2024/01/04 01:07:05;;;;;;;4.00;0.90;;;;;;;15.63;53.01;99456.78;5054712;28;20037;-69
2024/01/04 01:09:31;;;;;;;1.70;1.33;;;;;;;15.66;53.24;99459.09;5054866;28;20040;-69
2024/01/04 01:11:56;;;;;;;1.90;0.77;;;;;;;15.71;53.06;99457.47;5056482;28;20484;-68
2024/01/04 01:14:21;;;;;;;3.10;0.90;;;;;;;15.72;53.28;99467.22;5056301;28;20132;-69
2024/01/04 01:16:47;;;;;;;5.97;1.42;;;;;;;15.66;52.54;99451.81;5055982;28;20025;-69
2024/01/04 01:19:12;;;;;;;1.05;0.57;;;;;;;15.77;53.75;99477.47;5056335;28;20044;-68
2024/01/04 01:21:37;;;;;;;1.50;0.85;;;;;;;15.78;53.29;99478.28;5056819;28;20128;-68
2024/01/04 01:24:03;;;;;;;2.83;0.60;;;;;;;15.80;53.86;99484.34;5056165;28;20083;-69
2024/01/04 01:26:28;;;;;;;2.45;1.00;;;;;;;15.81;53.00;99499.50;5055904;28;20041;-68
2024/01/04 01:28:54;;;;;;;4.90;1.25;;;;;;;15.83;54.32;99506.34;5055443;28;20040;-68
2024/01/04 01:31:19;;;;;;;7.10;1.70;;;;;;;15.84;53.72;99510.75;5054051;28;20451;-68
2024/01/04 01:33:45;;;;;;;3.35;1.13;;;;;;;15.87;53.81;99514.91;5054176;28;20072;-69
2024/01/04 01:36:11;;;;;;;3.15;0.70;;;;;;;15.90;53.95;99522.63;5055282;28;20025;-68
2024/01/04 01:38:36;;;;;;;2.90;0.73;;;;;;;15.90;53.53;99528.03;5055022;28;20033;-68
2024/01/04 01:41:02;;;;;;;0.88;0.60;;;;;;;15.96;54.24;99535.34;5055267;28;20036;-69
2024/01/04 01:43:27;;;;;;;2.33;0.95;;;;;;;15.96;52.81;99538.06;5055022;28;20036;-68
2024/01/04 01:45:52;;;;;;;2.80;0.93;;;;;;;16.00;53.93;99536.63;5055319;28;20519;-68
2024/01/04 01:48:18;;;;;;;4.57;1.08;;;;;;;16.00;52.97;99550.13;5053873;28;20025;-69
2024/01/04 01:50:44;;;;;;;5.75;1.27;;;;;;;15.98;53.20;99550.34;5053816;28;20052;-68
2024/01/04 01:53:09;;;;;;;3.53;0.85;;;;;;;15.99;52.60;99556.56;5054938;28;20033;-68
2024/01/04 01:55:35;;;;;;;5.25;0.77;;;;;;;16.00;53.09;99563.63;5054884;28;20515;-68
2024/01/04 01:58:01;;;;;;;1.75;0.57;;;;;;;15.99;52.33;99565.53;5055057;28;20390;-68
2024/01/04 02:00:26;;;;;;;2.22;0.70;;;;;;;16.00;53.74;99572.56;5054764;28;20056;-68
2024/01/04 02:02:52;;;;;;;2.78;0.73;;;;;;;15.93;52.48;99557.34;5054737;28;20108;-68
2024/01/04 02:05:17;;;;;;;2.92;0.68;;;;;;;16.06;52.71;99584.47;5036894;28;20044;-68
2024/01/04 02:07:43;;;;;;;2.30;0.50;;;;;;;16.07;52.92;99586.16;5054882;28;20519;-68
2024/01/04 02:10:09;;;;;;;3.30;1.23;;;;;;;16.06;53.19;99584.47;5054714;28;20404;-69
2024/01/04 02:12:34;;;;;;;6.80;1.15;;;;;;;16.08;52.43;99585.94;5054629;28;20124;-68
2024/01/04 02:15:00;;;;;;;3.63;1.27;;;;;;;16.08;53.32;99593.22;5054303;28;20036;-68
2024/01/04 02:17:25;;;;;;;2.15;0.75;;;;;;;16.08;53.43;99598.63;5053798;28;20037;-69
2024/01/04 02:19:51;;;;;;;1.20;0.60;;;;;;;16.06;53.17;99606.06;5054728;28;20068;-68
2024/01/04 02:22:17;;;;;;;1.13;0.70;;;;;;;16.08;52.92;99610.25;5054520;28;20119;-68
2024/01/04 02:24:45;;;;;;;3.90;0.70;;;;;;;16.11;52.72;99614.44;5054362;28;20033;-68
2024/01/04 02:27:12;;;;;;;2.42;0.65;;;;;;;16.12;52.09;99619.66;5054520;28;20033;-68
2024/01/04 02:29:37;;;;;;;5.72;1.02;;;;;;;16.15;53.25;99615.72;5053245;28;20499;-69
2024/01/04 02:32:03;;;;;;;4.43;0.55;;;;;;;16.17;52.45;99619.06;5053438;28;20040;-69
2024/01/04 02:34:29;;;;;;;4.85;0.85;;;;;;;16.15;51.97;99621.13;5053996;28;20033;-69
2024/01/04 02:36:55;;;;;;;2.60;0.30;;;;;;;16.16;52.48;99615.50;5053696;28;20033;-69
2024/01/04 02:39:20;;;;;;;6.30;1.40;;;;;;;16.18;52.88;99620.75;5053865;28;20040;-69
2024/01/04 02:41:47;;;;;;;2.00;0.70;;;;;;;16.17;52.29;99624.47;5053891;28;20025;-68
2024/01/04 02:44:12;;;;;;;2.22;0.60;;;;;;;16.17;52.97;99621.75;5053671;28;20029;-68
2024/01/04 02:46:38;;;;;;;7.95;0.93;;;;;;;16.15;53.43;99640.88;5053751;28;20079;-68
2024/01/04 02:49:03;;;;;;;3.08;0.95;;;;;;;16.13;53.07;99639.41;5063367;28;20020;-69
2024/01/04 02:51:28;;;;;;;2.63;1.17;;;;;;;16.15;52.88;99645.44;5093932;28;20390;-68
2024/01/04 02:53:54;;;;;;;1.85;1.60;;;;;;;16.11;52.41;99644.97;5093882;28;20078;-68
2024/01/04 02:56:19;;;;;;;4.38;1.08;;;;;;;16.08;52.91;99647.25;5093963;28;20081;-68
2024/01/04 02:58:45;;;;;;;9.15;1.50;;;;;;;16.05;53.06;99647.66;5093880;28;20027;-68
2024/01/04 03:01:11;;;;;;;5.82;1.48;;;;;;;16.04;52.80;99645.97;5094095;28;20495;-68
2024/01/04 03:03:36;;;;;;;4.22;1.30;;;;;;;16.02;53.25;99656.13;5093923;28;20031;-68
2024/01/04 03:06:02;;;;;;;2.60;1.40;;;;;;;16.01;53.56;99654.44;5093538;28;20156;-69
2024/01/04 03:08:27;;;;;;;6.72;1.42;;;;;;;15.98;52.59;99665.63;5093930;28;20058;-68
2024/01/04 03:10:53;;;;;;;3.50;1.80;;;;;;;15.95;53.02;99653.34;5093630;28;20048;-67
2024/01/04 03:13:18;;;;;;;3.10;1.15;;;;;;;15.97;53.22;99669.38;5093657;28;20024;-68
2024/01/04 03:15:44;;;;;;;5.90;1.42;;;;;;;15.96;53.80;99670.41;5093373;28;20443;-68
2024/01/04 03:18:09;;;;;;;5.75;0.90;;;;;;;15.96;52.63;99671.25;5093950;28;20085;-67
2024/01/04 03:20:34;;;;;;;6.40;1.38;;;;;;;15.99;53.27;99683.53;5095009;28;20081;-68
2024/01/04 03:23:00;;;;;;;10.90;3.05;;;;;;;16.00;53.17;99685.19;5093957;28;20415;-68
2024/01/04 03:25:25;;;;;;;8.98;1.75;;;;;;;16.00;52.58;99693.28;5093392;28;20093;-68
2024/01/04 03:27:51;;;;;;;7.53;1.30;;;;;;;15.99;53.33;99692.47;5092923;28;20028;-67
2024/01/04 03:30:16;;;;;;;6.72;1.63;;;;;;;16.02;52.98;99700.19;5093357;28;20099;-68
2024/01/04 03:32:41;;;;;;;5.82;1.63;;;;;;;16.03;52.03;99704.56;5093483;28;20031;-68
2024/01/04 03:35:08;;;;;;;12.88;1.42;;;;;;;16.05;53.40;99704.38;5093616;28;20027;-68
2024/01/04 03:37:33;;;;;;;2.95;1.27;;;;;;;16.05;53.08;99707.88;5093371;28;20031;-68
2024/01/04 03:39:59;;;;;;;4.82;1.45;;;;;;;16.04;52.73;99695.44;5093411;28;20016;-68
2024/01/04 03:42:24;;;;;;;2.95;1.38;;;;;;;16.05;52.50;99715.19;5093090;28;20028;-68
2024/01/04 03:44:49;;;;;;;5.70;1.13;;;;;;;16.01;52.75;99721.97;5093472;28;20012;-68
2024/01/04 03:47:16;;;;;;;4.53;1.50;;;;;;;16.00;53.43;99723.00;5093311;28;20023;-68
2024/01/04 03:49:41;;;;;;;6.20;1.83;;;;;;;15.98;52.42;99722.34;5093344;28;20027;-68
2024/01/04 03:52:07;;;;;;;7.10;1.30;;;;;;;15.98;53.98;99725.91;5091897;28;20027;-67
2024/01/04 03:54:33;;;;;;;5.75;1.20;;;;;;;16.00;52.70;99731.09;5092959;28;20027;-68
2024/01/04 03:56:58;;;;;;;1.73;0.98;;;;;;;15.98;52.77;99733.16;5092971;28;20019;-68
2024/01/04 03:59:24;;;;;;;2.15;0.77;;;;;;;15.99;52.81;99735.69;5093207;28;20040;-68
2024/01/04 04:01:49;;;;;;;2.67;1.08;;;;;;;16.00;52.86;99739.19;5093406;28;20036;-68
2024/01/04 04:04:15;;;;;;;5.75;0.95;;;;;;;15.98;52.77;99747.50;5091679;28;20507;-68
2024/01/04 04:06:40;;;;;;;4.38;0.63;;;;;;;15.97;52.69;99747.72;5093345;28;20036;-68
2024/01/04 04:09:09;;;;;;;7.28;0.73;;;;;;;15.92;52.74;99755.53;5093117;28;20028;-68
2024/01/04 04:11:34;;;;;;;0.80;0.30;;;;;;;15.89;53.94;99755.91;5093290;28;20032;-67
2024/01/04 04:14:01;;;;;;;0.82;0.30;;;;;;;15.85;52.88;99754.63;5091533;28;20502;-67
2024/01/04 04:16:26;;;;;;;2.33;0.40;;;;;;;15.80;52.87;99763.28;5093126;28;20040;-67
2024/01/04 04:18:52;;;;;;;1.55;0.35;;;;;;;15.74;52.92;99764.06;5091917;28;20024;-68
2024/01/04 04:21:19;;;;;;;2.10;0.40;;;;;;;15.71;53.42;99772.53;5093114;28;20508;-68
2024/01/04 04:23:47;;;;;;;2.17;0.50;;;;;;;15.71;52.70;99770.66;5092916;28;20032;-68
2024/01/04 04:26:12;;;;;;;0.90;0.30;;;;;;;15.71;52.80;99776.06;5091660;28;20025;-68
2024/01/04 04:28:38;;;;;;;0.90;0.40;;;;;;;15.71;53.20;99772.53;5092615;28;20142;-68
2024/01/04 04:31:03;;;;;;;1.27;0.45;;;;;;;15.71;52.37;99781.47;5092932;28;20024;-69
2024/01/04 04:33:28;;;;;;;0.63;0.30;;;;;;;15.74;52.65;99781.06;5093493;28;20055;-68
2024/01/04 04:35:54;;;;;;;2.63;0.30;;;;;;;15.73;53.20;99784.81;5093580;28;20123;-68
2024/01/04 04:38:19;;;;;;;0.38;0.35;;;;;;;15.74;52.93;99783.75;5093441;28;20070;-68
2024/01/04 04:40:45;;;;;;;2.55;1.05;;;;;;;15.70;52.66;99798.69;5096131;28;20505;-68
2024/01/04 04:43:10;;;;;;;1.73;0.60;;;;;;;15.64;53.07;99796.72;5096630;28;20032;-68
2024/01/04 04:45:36;;;;;;;1.75;1.40;;;;;;;15.57;53.04;99784.19;5079468;28;20082;-69
2024/01/04 04:48:01;;;;;;;0.50;0.50;;;;;;;15.52;52.51;99795.50;5075186;28;20037;-69
2024/01/04 04:50:26;;;;;;;0.90;0.40;;;;;;;15.50;53.91;99808.38;5076376;28;20028;-69
2024/01/04 04:52:52;;;;;;;2.30;0.90;;;;;;;15.47;53.29;99799.78;5075029;28;20097;-68
2024/01/04 04:55:17;;;;;;;1.80;0.63;;;;;;;15.43;53.57;99796.63;5075176;28;20025;-69
2024/01/04 04:57:42;;;;;;;1.15;0.40;;;;;;;15.53;52.64;99805.28;5076458;28;20036;-69
2024/01/04 05:00:08;;;;;;;1.38;0.82;;;;;;;15.57;52.10;99806.63;5076371;28;20112;-69
2024/01/04 05:02:33;;;;;;;0.60;0.50;;;;;;;15.60;53.14;99805.41;5075413;28;20373;-69
2024/01/04 05:04:59;;;;;;;0.77;0.43;;;;;;;15.62;52.11;99820.38;5074695;28;20042;-69
2024/01/04 05:07:24;;;;;;;1.25;0.77;;;;;;;15.66;51.80;99818.97;5076273;28;20119;-68
2024/01/04 05:09:49;;;;;;;2.50;1.20;;;;;;;15.68;53.04;99818.78;5076176;28;20078;-69
2024/01/04 05:12:15;;;;;;;5.20;1.27;;;;;;;15.69;52.15;99821.28;5076310;28;20519;-69
2024/01/04 05:14:40;;;;;;;2.97;1.35;;;;;;;15.69;53.02;99815.06;5075984;28;20044;-69
2024/01/04 05:17:06;;;;;;;1.52;0.80;;;;;;;15.76;52.35;99828.66;5076000;28;20031;-68
2024/01/04 05:19:31;;;;;;;2.80;0.80;;;;;;;15.77;53.22;99835.75;5076818;28;20086;-68
2024/01/04 05:21:57;;;;;;;1.73;0.95;;;;;;;15.76;52.33;99834.91;5076426;28;20078;-69
2024/01/04 05:24:22;;;;;;;1.55;0.73;;;;;;;15.78;53.42;99837.41;5076030;28;20074;-69
2024/01/04 05:26:47;;;;;;;2.15;0.70;;;;;;;15.81;52.03;99850.53;5057643;28;20082;-68
2024/01/04 05:29:13;;;;;;;2.92;1.05;;;;;;;15.83;52.00;99851.19;5075764;28;20108;-69
2024/01/04 05:31:38;;;;;;;0.98;0.90;;;;;;;15.85;53.00;99855.38;5075417;28;20086;-69
2024/01/04 05:34:03;;;;;;;1.83;0.80;;;;;;;15.85;53.05;99862.66;5075763;28;20108;-69
2024/01/04 05:36:30;;;;;;;1.83;0.90;;;;;;;15.85;52.65;99857.25;5074348;28;20392;-68
2024/01/04 05:38:55;;;;;;;1.55;0.82;;;;;;;15.86;52.49;99862.44;5075575;28;20032;-68
2024/01/04 05:41:21;;;;;;;2.75;0.85;;;;;;;15.86;53.05;99856.19;5075238;28;20085;-68
2024/01/04 05:43:47;;;;;;;3.25;0.88;;;;;;;15.88;52.47;99868.53;5075222;28;20081;-68
2024/01/04 05:46:13;;;;;;;2.63;0.80;;;;;;;15.87;52.54;99872.22;5074377;28;20025;-68
2024/01/04 05:48:38;;;;;;;2.78;1.02;;;;;;;15.89;51.93;99870.19;5075396;28;20545;-69
2024/01/04 05:51:04;;;;;;;4.05;0.80;;;;;;;15.89;52.15;99874.72;5073462;28;20029;-69
2024/01/04 05:53:29;;;;;;;1.95;0.80;;;;;;;15.90;52.44;99879.13;5075490;28;20050;-68
2024/01/04 05:55:54;;;;;;;1.45;0.70;;;;;;;15.92;52.62;99887.88;5075442;28;20040;-68
2024/01/04 05:58:20;;;;;;;3.72;0.75;;;;;;;15.92;52.92;99879.75;5074289;28;20146;-68
2024/01/04 06:00:45;;;;;;;7.65;0.90;;;;;;;15.86;52.18;99869.69;5075134;28;20074;-68
2024/01/04 06:03:11;;;;;;;2.45;0.80;;;;;;;15.88;52.10;99878.47;5075122;28;20025;-68
2024/01/04 06:05:36;;;;;;;3.97;0.93;;;;;;;15.94;52.25;99889.34;5075757;28;20166;-69
2024/01/04 06:08:03;;;;;;;0.82;0.70;;;;;;;15.94;52.87;99893.94;5075759;28;20044;-68
2024/01/04 06:10:28;;;;;;;2.97;1.30;;;;;;;15.94;53.13;99893.94;5075064;28;20036;-68
2024/01/04 06:12:54;;;;;;;0.88;0.88;;;;;;;15.94;53.30;99893.94;5075320;28;20040;-68
2024/01/04 06:15:19;;;;;;;0.80;0.73;;;;;;;15.96;52.45;99903.53;5074770;28;20039;-68
2024/01/04 06:17:45;;;;;;;1.95;0.90;;;;;;;15.95;51.73;99907.25;5073859;28;20041;-68
2024/01/04 06:20:10;;;;;;;5.22;1.15;;;;;;;15.96;52.67;99913.50;5074147;28;20039;-69
2024/01/04 06:22:35;;;;;;;2.88;1.00;;;;;;;15.95;51.57;99903.72;5072661;28;20029;-69
2024/01/04 06:25:01;;;;;;;2.38;1.08;;;;;;;15.96;53.09;99913.50;5074076;28;20109;-68
2024/01/04 06:27:26;;;;;;;0.77;0.70;;;;;;;15.93;52.30;99905.75;5073898;28;20106;-68
2024/01/04 06:29:51;;;;;;;1.52;1.13;;;;;;;15.95;52.22;99922.63;5073757;28;20028;-68
2024/01/04 06:32:17;;;;;;;1.13;0.90;;;;;;;15.95;52.64;99922.63;5073740;28;20159;-68
2024/01/04 06:34:42;;;;;;;4.53;1.52;;;;;;;15.94;53.09;99916.38;5073624;28;20033;-68
2024/01/04 06:37:08;;;;;;;1.85;1.52;;;;;;;15.94;52.19;99921.78;5073525;28;20488;-68
2024/01/04 06:39:33;;;;;;;2.53;1.38;;;;;;;15.95;52.38;99928.00;5073661;28;20107;-68
2024/01/04 06:41:58;;;;;;;1.27;0.77;;;;;;;15.94;52.01;99923.66;5073490;28;20029;-68
2024/01/04 06:44:24;;;;;;;4.30;0.90;;;;;;;15.93;52.64;99924.66;5073652;28;20101;-68
2024/01/04 06:46:49;;;;;;;5.95;1.58;;;;;;;15.92;52.97;99936.50;5073463;28;20093;-69
2024/01/04 06:49:14;;;;;;;2.00;1.02;;;;;;;15.89;52.92;99929.59;5073548;28;20399;-69
2024/01/04 06:51:40;;;;;;;8.55;1.10;;;;;;;15.89;52.98;99924.19;5073388;28;20052;-69
2024/01/04 06:54:05;;;;;;;4.22;1.13;;;;;;;15.86;51.76;99931.81;5072070;28;20028;-69
2024/01/04 06:56:30;;;;;;;3.40;1.27;;;;;;;15.88;52.15;99943.31;5073500;28;20115;-68
2024/01/04 06:58:56;;;;;;;3.15;1.42;;;;;;;15.85;52.67;99943.66;5073329;28;20028;-68
2024/01/04 07:01:22;;;;;;;2.55;1.30;;;;;;;15.82;52.96;99949.44;5073179;28;20506;-68
2024/01/04 07:03:48;;;;;;;4.50;1.40;;;;;;;15.78;52.18;99954.34;5072940;28;20043;-68
2024/01/04 07:06:13;;;;;;;3.97;1.70;;;;;;;15.78;53.31;99962.47;5072977;28;20112;-69
2024/01/04 07:08:40;;;;;;;4.25;0.80;;;;;;;15.74;52.35;99961.97;5073245;28;20364;-68
2024/01/04 07:11:05;;;;;;;6.93;1.13;;;;;;;15.71;52.01;99962.38;5073094;28;20040;-69
2024/01/04 07:13:32;;;;;;;2.63;0.55;;;;;;;15.71;52.48;99970.47;5073272;28;20532;-69
2024/01/04 07:15:58;;;;;;;5.22;1.00;;;;;;;15.69;52.64;99971.66;5071801;28;20054;-69
2024/01/04 07:18:23;;;;;;;5.03;1.45;;;;;;;15.71;52.54;99985.84;5073458;28;20036;-68
2024/01/04 07:20:49;;;;;;;7.90;1.00;;;;;;;15.69;52.20;99986.00;5073398;28;20036;-69
2024/01/04 07:23:14;;;;;;;4.38;1.02;;;;;;;15.69;53.17;99983.28;5072873;28;20025;-69
2024/01/04 07:25:39;;;;;;;10.00;1.05;;;;;;;15.69;53.67;99987.84;5072846;28;20024;-69
2024/01/04 07:28:05;;;;;;;3.50;0.90;;;;;;;15.69;53.73;99996.78;5073044;28;20032;-68
2024/01/04 07:30:30;;;;;;;4.43;1.02;;;;;;;15.70;53.15;99990.38;5073149;28;20029;-69
2024/01/04 07:32:56;;;;;;;3.13;0.65;;;;;;;15.70;53.60;99995.78;5072829;28;20488;-69
2024/01/04 07:35:23;;;;;;;4.65;1.15;;;;;;;15.71;52.74;99997.47;5072726;28;20408;-69
2024/01/04 07:37:49;;;;;;;7.03;1.27;;;;;;;15.71;52.68;100002.88;5071449;28;20449;-69
2024/01/04 07:40:14;;;;;;;6.75;1.20;;;;;;;15.73;52.79;99990.03;5072917;28;20032;-69
2024/01/04 07:42:40;;;;;;;1.80;1.23;;;;;;;15.76;53.70;100010.41;5071676;28;20029;-69
2024/01/04 07:45:05;;;;;;;5.35;0.73;;;;;;;15.76;52.73;100006.88;5071791;28;20043;-69
2024/01/04 07:47:31;;;;;;;3.60;2.13;;;;;;;15.73;53.92;100002.69;5072769;28;20499;-69
2024/01/04 07:49:56;;;;;;;3.63;0.60;;;;;;;15.80;52.16;100017.13;5073068;28;20170;-69
2024/01/04 07:52:21;;;;;;;5.60;0.82;;;;;;;15.80;52.88;100016.31;5072791;28;20028;-69
2024/01/04 07:54:47;;;;;;;0.95;0.38;;;;;;;15.81;53.29;100023.38;5072828;28;20037;-68
2024/01/04 07:57:13;;;;;;;1.30;0.60;;;;;;;15.83;53.27;100024.03;5072756;28;20408;-69
2024/01/04 07:59:38;;;;;;;3.63;1.42;;;;;;;15.81;52.72;100015.25;5072732;28;20029;-68
2024/01/04 08:02:03;;;;;;;4.35;1.20;;;;;;;15.82;52.76;100014.25;5072956;28;20029;-68
2024/01/04 08:04:29;;;;;;;6.45;0.75;;;;;;;15.87;53.32;100022.63;5071232;28;20051;-68
2024/01/04 08:06:55;;;;;;;6.50;0.70;;;;;;;15.88;53.04;100021.63;5073104;28;20274;-68
2024/01/04 08:09:21;;;;;;;1.98;0.85;;;;;;;15.91;52.92;100018.56;5073872;28;20052;-68
2024/01/04 08:11:46;;;;;;;1.67;0.60;;;;;;;15.95;52.41;100015.31;5074712;28;20174;-68
2024/01/04 08:14:12;;;;;;;2.58;0.70;;;;;;;15.96;52.39;100005.34;5074460;28;20071;-68
2024/01/04 08:16:38;;;;;;;2.35;0.80;;;;;;;16.07;52.75;100029.19;5078254;28;20045;-69
2024/01/04 08:19:03;;;;;;;3.50;0.55;;;;;;;16.15;52.13;100035.38;5076744;28;20043;-68
2024/01/04 08:21:29;;;;;;;2.92;1.15;;;;;;;16.20;52.64;100040.22;5077544;28;20421;-69
2024/01/04 08:23:54;;;;;;;2.47;0.80;;;;;;;16.22;52.70;100044.41;5077497;28;20036;-68
2024/01/04 08:26:20;;;;;;;4.20;0.47;;;;;;;16.24;52.64;100041.53;5077459;28;20055;-68
2024/01/04 08:28:45;;;;;;;5.63;1.38;;;;;;;16.21;52.13;100033.78;5078042;28;20049;-69
2024/01/04 08:31:11;;;;;;;2.45;0.60;;;;;;;16.27;52.34;100041.16;5077743;28;20028;-68
2024/01/04 08:33:36;;;;;;;4.68;0.80;;;;;;;16.30;51.58;100047.00;5077720;28;20039;-69
2024/01/04 08:36:01;;;;;;;7.82;0.90;;;;;;;16.27;51.65;100041.97;5078049;28;20395;-68
2024/01/04 08:38:27;;;;;;;4.32;0.93;;;;;;;16.26;51.58;100050.28;5076123;28;20033;-68
2024/01/04 08:40:53;;;;;;;3.95;0.88;;;;;;;16.27;52.97;100052.78;5076184;28;20510;-69
2024/01/04 08:43:18;;;;;;;1.52;0.75;;;;;;;16.26;52.58;100044.88;5075970;28;20400;-69
2024/01/04 08:45:43;;;;;;;4.28;1.30;;;;;;;16.24;52.69;100057.75;5075946;28;20503;-69
2024/01/04 08:48:09;;;;;;;6.57;1.70;;;;;;;16.24;52.27;100052.34;5075912;28;20063;-69
2024/01/04 08:50:34;;;;;;;0.90;0.68;;;;;;;16.25;52.69;100067.50;5075946;28;20504;-68
2024/01/04 08:52:59;;;;;;;2.88;1.02;;;;;;;16.25;53.28;100071.06;5075678;28;20036;-68
2024/01/04 08:55:25;;;;;;;2.63;1.05;;;;;;;16.27;53.13;100073.59;5075655;28;20040;-69
2024/01/04 08:57:50;;;;;;;3.85;1.00;;;;;;;16.27;52.37;100065.47;5075728;28;20041;-68
2024/01/04 09:00:16;;;;;;;2.95;0.90;;;;;;;16.28;52.55;100070.69;5075050;28;20405;-68
2024/01/04 09:02:42;;;;;;;4.40;1.10;;;;;;;16.29;52.45;100075.09;5076404;28;20028;-68
2024/01/04 09:05:08;;;;;;;4.22;1.15;;;;;;;16.27;52.78;100079.81;5076356;28;20040;-68
2024/01/04 09:07:34;;;;;;;9.55;1.10;;;;;;;16.28;52.07;100081.50;5075569;28;20029;-67
2024/01/04 09:09:59;;;;;;;0.98;0.80;;;;;;;16.29;52.52;100085.06;5075387;28;20043;-68
2024/01/04 09:12:26;;;;;;;1.48;0.90;;;;;;;16.25;52.18;100091.84;5075511;28;20047;-68
2024/01/04 09:14:52;;;;;;;3.40;1.55;;;;;;;16.17;52.91;100089.22;5075228;28;20033;-68
2024/01/04 09:17:18;;;;;;;5.20;1.77;;;;;;;16.23;52.25;100104.69;5076123;28;20044;-68
2024/01/04 09:19:43;;;;;;;2.42;1.10;;;;;;;16.24;52.32;100100.97;5076990;28;20032;-68
2024/01/04 09:22:09;;;;;;;3.17;0.93;;;;;;;16.29;51.96;100103.97;5075063;28;20495;-68
2024/01/04 09:24:34;;;;;;;4.30;1.38;;;;;;;16.30;53.06;100106.47;5075253;28;20120;-67
2024/01/04 09:27:00;;;;;;;5.00;1.50;;;;;;;16.36;52.66;100115.72;5073840;28;20042;-68
2024/01/04 09:29:26;;;;;;;3.38;1.30;;;;;;;16.36;52.64;100102.19;5075196;28;20037;-68
2024/01/04 09:31:51;;;;;;;4.68;0.93;;;;;;;16.36;52.08;100104.91;5074908;28;20032;-68
2024/01/04 09:34:17;;;;;;;3.72;1.02;;;;;;;16.41;53.14;100113.31;5075096;28;20056;-68
2024/01/04 09:36:42;;;;;;;2.03;1.58;;;;;;;16.45;51.84;100109.22;5074957;28;20044;-68
2024/01/04 09:39:08;;;;;;;3.30;1.40;;;;;;;16.56;52.30;100122.31;5074959;28;20036;-68
2024/01/04 09:41:35;;;;;;;3.25;0.82;;;;;;;16.65;52.17;100121.19;5074908;28;20029;-68
2024/01/04 09:44:05;;;;;;;2.33;0.90;;;;;;;16.68;51.83;100128.94;5074913;28;20040;-68
2024/01/04 09:46:35;;;;;;;4.00;0.93;;;;;;;16.64;52.43;100130.31;5074849;28;20021;-68
2024/01/04 09:49:02;;;;;;;3.25;0.80;;;;;;;16.65;52.47;100132.00;5074947;28;20024;-68
2024/01/04 09:51:29;;;;;;;2.83;1.45;;;;;;;16.65;52.46;100137.44;5073847;28;20024;-68
2024/01/04 09:53:55;;;;;;;3.13;1.23;;;;;;;16.61;52.06;100152.31;5074837;28;20112;-68
2024/01/04 09:56:22;;;;;;;4.53;1.02;;;;;;;16.55;51.88;100147.69;5074416;28;20167;-68
2024/01/04 09:58:48;;;;;;;5.18;1.08;;;;;;;16.62;52.68;100164.84;5074435;28;20036;-68
2024/01/04 10:01:18;;;;;;;7.55;1.27;;;;;;;16.63;52.28;100163.81;5074512;28;20035;-68
2024/01/04 10:03:47;;;;;;;5.03;1.58;;;;;;;16.66;51.97;100166.16;5074513;28;20029;-68
2024/01/04 10:06:13;;;;;;;2.05;0.90;;;;;;;16.67;51.52;100165.13;5074251;28;20032;-67
2024/01/04 10:08:42;;;;;;;3.80;1.13;;;;;;;16.61;51.59;100159.63;5073314;28;20079;-68
2024/01/04 10:11:19;;;;;;;3.50;1.40;;;;;;;16.63;52.49;100176.50;5056831;28;20032;-67
2024/01/04 10:13:45;;;;;;;5.45;1.58;;;;;;;16.66;52.21;100176.13;5074045;28;20043;-68
2024/01/04 10:16:11;;;;;;;2.92;1.00;;;;;;;16.66;52.22;100179.69;5074078;28;20024;-68
2024/01/04 10:18:36;;;;;;;5.70;0.85;;;;;;;16.67;53.10;100169.69;5074150;28;20027;-67
2024/01/04 10:21:07;;;;;;;6.50;1.08;;;;;;;16.67;51.96;100177.78;5072816;28;20028;-68
2024/01/04 10:23:33;;;;;;;3.05;1.10;;;;;;;16.65;52.65;100174.44;5074360;28;20021;-68
2024/01/04 10:26:26;;;;;;;3.90;1.00;;;;;;;16.63;51.84;100184.59;5072842;28;20063;-67
2024/01/04 10:28:55;;;;;;;3.60;1.15;;;;;;;16.59;52.85;100186.84;5068938;28;20496;-67
2024/01/04 10:31:20;;;;;;;6.35;1.75;;;;;;;16.54;52.79;100181.13;5073955;28;20043;-67
2024/01/04 10:33:46;;;;;;;10.63;1.40;;;;;;;16.51;51.92;100184.19;5074047;28;20036;-67
2024/01/04 10:36:12;;;;;;;14.95;2.15;;;;;;;16.47;52.94;100187.44;5073835;28;20033;-67
2024/01/04 10:38:38;;;;;;;12.77;1.73;;;;;;;16.44;52.70;100185.09;5073441;28;20111;-67
2024/01/04 10:41:04;;;;;;;12.02;1.98;;;;;;;16.41;52.45;100189.00;5073910;28;20552;-68
2024/01/04 10:43:33;;;;;;;10.90;2.25;;;;;;;16.38;52.33;100192.06;5073555;28;20025;-68
2024/01/04 10:46:08;;;;;;;12.98;2.75;;;;;;;16.37;52.27;100187.69;5073729;28;20020;-68
2024/01/04 10:48:38;;;;;;;12.25;1.77;;;;;;;16.33;52.83;100187.19;5072469;28;20040;-67
2024/01/04 10:51:05;;;;;;;11.32;2.40;;;;;;;16.30;52.95;100197.56;5073553;28;20032;-67
2024/01/04 10:53:34;;;;;;;10.18;2.10;;;;;;;16.23;52.78;100185.78;5073719;28;20112;-68
2024/01/04 10:56:02;;;;;;;13.27;2.33;;;;;;;16.15;53.26;100183.13;5055492;28;20036;-68
2024/01/04 10:58:27;;;;;;;12.52;2.00;;;;;;;16.12;52.31;100183.50;5072253;28;20052;-69
2024/01/04 11:00:52;;;;;;;16.02;3.17;;;;;;;16.05;52.52;100182.56;5073521;28;20075;-70
2024/01/04 11:03:18;;;;;;;11.80;2.08;;;;;;;16.03;52.54;100196.22;5072587;28;20041;-69
2024/01/04 11:05:43;;;;;;;18.38;2.53;;;;;;;16.01;52.19;100186.63;5073069;28;20404;-69
2024/01/04 11:08:10;;;;;;;16.42;2.10;;;;;;;15.99;52.65;100210.28;5073244;28;20078;-69
2024/01/04 11:10:36;;;;;;;7.82;1.88;;;;;;;15.95;52.85;100203.53;5072199;28;20068;-68
2024/01/04 11:13:02;;;;;;;6.65;2.25;;;;;;;15.96;53.68;100218.75;5073569;28;20059;-69
2024/01/04 11:15:28;;;;;;;8.90;1.95;;;;;;;15.95;52.82;100207.09;5064485;28;20056;-68
2024/01/04 11:18:12;;;;;;;14.65;3.17;;;;;;;16.00;52.38;100217.34;5054291;28;20028;-68
2024/01/04 11:21:02;;;;;;;13.30;2.78;;;;;;;16.01;53.25;100210.94;5053951;28;20025;-68
2024/01/04 11:23:35;;;;;;;16.33;4.72;;;;;;;16.00;53.11;100206.53;5053163;28;20043;-68